sensor_id;sensor_type;location;lat;lon;timestamp;P1;durP1;ratioP1;P2;durP2;ratioP2
16330;SDS011;8275;48.206;16.340;2023-04-29T00:01:24;12.20;;;11.00;;
16330;SDS011;8275;48.206;16.340;2023-04-29T00:03:53;14.05;;;10.55;;
16330;SDS011;8275;48.206;16.340;2023-04-29T00:06:22;13.32;;;12.00;;
16330;SDS011;8275;48.206;16.340;2023-04-29T00:08:50;15.88;;;11.85;;
16330;SDS011;8275;48.206;16.340;2023-04-29T00:11:19;10.57;;;9.55;;
16330;SDS011;8275;48.206;16.340;2023-04-29T00:13:47;11.88;;;10.43;;
16330;SDS011;8275;48.206;16.340;2023-04-29T00:16:17;13.32;;;10.48;;
16330;SDS011;8275;48.206;16.340;2023-04-29T00:18:45;10.02;;;9.20;;
16330;SDS011;8275;48.206;16.340;2023-04-29T00:21:14;11.77;;;10.52;;
16330;SDS011;8275;48.206;16.340;2023-04-29T00:23:42;12.75;;;8.65;;
16330;SDS011;8275;48.206;16.340;2023-04-29T00:26:11;11.25;;;10.10;;
16330;SDS011;8275;48.206;16.340;2023-04-29T00:28:39;12.65;;;11.38;;
16330;SDS011;8275;48.206;16.340;2023-04-29T00:31:08;11.93;;;10.82;;
16330;SDS011;8275;48.206;16.340;2023-04-29T00:33:38;9.65;;;8.75;;
16330;SDS011;8275;48.206;16.340;2023-04-29T00:36:07;12.57;;;10.82;;
16330;SDS011;8275;48.206;16.340;2023-04-29T00:38:35;11.18;;;10.05;;
16330;SDS011;8275;48.206;16.340;2023-04-29T00:41:04;10.43;;;9.43;;
16330;SDS011;8275;48.206;16.340;2023-04-29T00:43:32;8.82;;;8.10;;
16330;SDS011;8275;48.206;16.340;2023-04-29T00:46:01;16.88;;;9.27;;
16330;SDS011;8275;48.206;16.340;2023-04-29T00:48:29;9.25;;;8.45;;
16330;SDS011;8275;48.206;16.340;2023-04-29T00:50:59;8.90;;;7.97;;
16330;SDS011;8275;48.206;16.340;2023-04-29T00:53:29;9.70;;;8.90;;
16330;SDS011;8275;48.206;16.340;2023-04-29T00:55:58;8.98;;;7.95;;
16330;SDS011;8275;48.206;16.340;2023-04-29T00:58:28;10.15;;;9.18;;
16330;SDS011;8275;48.206;16.340;2023-04-29T01:00:58;9.20;;;8.50;;
16330;SDS011;8275;48.206;16.340;2023-04-29T01:03:29;9.85;;;8.98;;
16330;SDS011;8275;48.206;16.340;2023-04-29T01:06:03;9.73;;;8.77;;
16330;SDS011;8275;48.206;16.340;2023-04-29T01:08:39;10.88;;;9.32;;
16330;SDS011;8275;48.206;16.340;2023-04-29T01:11:20;10.48;;;9.48;;
16330;SDS011;8275;48.206;16.340;2023-04-29T01:13:54;9.40;;;8.50;;
16330;SDS011;8275;48.206;16.340;2023-04-29T01:16:28;10.57;;;9.57;;
16330;SDS011;8275;48.206;16.340;2023-04-29T01:19:06;11.18;;;10.27;;
16330;SDS011;8275;48.206;16.340;2023-04-29T01:21:46;12.45;;;11.13;;
16330;SDS011;8275;48.206;16.340;2023-04-29T01:24:16;12.10;;;11.05;;
16330;SDS011;8275;48.206;16.340;2023-04-29T01:26:46;10.68;;;9.77;;
16330;SDS011;8275;48.206;16.340;2023-04-29T01:29:25;10.98;;;10.02;;
16330;SDS011;8275;48.206;16.340;2023-04-29T01:32:06;12.32;;;11.00;;
16330;SDS011;8275;48.206;16.340;2023-04-29T01:34:41;14.38;;;12.43;;
16330;SDS011;8275;48.206;16.340;2023-04-29T01:37:21;14.57;;;13.02;;
16330;SDS011;8275;48.206;16.340;2023-04-29T01:40:11;14.20;;;12.88;;
16330;SDS011;8275;48.206;16.340;2023-04-29T01:42:46;14.77;;;13.38;;
16330;SDS011;8275;48.206;16.340;2023-04-29T01:45:22;13.82;;;12.43;;
16330;SDS011;8275;48.206;16.340;2023-04-29T01:47:52;16.85;;;15.13;;
16330;SDS011;8275;48.206;16.340;2023-04-29T01:50:22;14.38;;;13.07;;
16330;SDS011;8275;48.206;16.340;2023-04-29T01:52:50;18.20;;;16.50;;
16330;SDS011;8275;48.206;16.340;2023-04-29T01:55:20;13.98;;;12.68;;
16330;SDS011;8275;48.206;16.340;2023-04-29T01:57:49;18.23;;;16.42;;
16330;SDS011;8275;48.206;16.340;2023-04-29T02:00:17;16.00;;;14.30;;
16330;SDS011;8275;48.206;16.340;2023-04-29T02:02:46;16.88;;;15.32;;
16330;SDS011;8275;48.206;16.340;2023-04-29T02:05:14;14.35;;;13.02;;
16330;SDS011;8275;48.206;16.340;2023-04-29T02:07:43;15.32;;;12.63;;
16330;SDS011;8275;48.206;16.340;2023-04-29T02:10:11;14.27;;;12.88;;
16330;SDS011;8275;48.206;16.340;2023-04-29T02:12:41;15.15;;;13.55;;
16330;SDS011;8275;48.206;16.340;2023-04-29T02:15:10;15.25;;;13.75;;
16330;SDS011;8275;48.206;16.340;2023-04-29T02:17:38;13.68;;;12.43;;
16330;SDS011;8275;48.206;16.340;2023-04-29T02:20:07;16.77;;;15.23;;
16330;SDS011;8275;48.206;16.340;2023-04-29T02:22:36;14.68;;;13.30;;
16330;SDS011;8275;48.206;16.340;2023-04-29T02:25:06;16.60;;;14.27;;
16330;SDS011;8275;48.206;16.340;2023-04-29T02:27:35;14.43;;;13.13;;
16330;SDS011;8275;48.206;16.340;2023-04-29T02:30:07;14.55;;;13.05;;
16330;SDS011;8275;48.206;16.340;2023-04-29T02:32:36;16.17;;;12.13;;
16330;SDS011;8275;48.206;16.340;2023-04-29T02:35:05;14.38;;;12.95;;
16330;SDS011;8275;48.206;16.340;2023-04-29T02:37:34;13.85;;;12.50;;
16330;SDS011;8275;48.206;16.340;2023-04-29T02:40:03;14.80;;;13.40;;
16330;SDS011;8275;48.206;16.340;2023-04-29T02:42:33;13.82;;;12.52;;
16330;SDS011;8275;48.206;16.340;2023-04-29T02:45:01;14.65;;;13.25;;
16330;SDS011;8275;48.206;16.340;2023-04-29T02:47:31;14.73;;;13.43;;
16330;SDS011;8275;48.206;16.340;2023-04-29T02:50:00;13.65;;;12.43;;
16330;SDS011;8275;48.206;16.340;2023-04-29T02:52:30;14.50;;;13.05;;
16330;SDS011;8275;48.206;16.340;2023-04-29T02:54:58;12.23;;;11.00;;
16330;SDS011;8275;48.206;16.340;2023-04-29T02:57:26;12.43;;;11.23;;
16330;SDS011;8275;48.206;16.340;2023-04-29T02:59:57;13.80;;;12.40;;
16330;SDS011;8275;48.206;16.340;2023-04-29T03:02:25;13.15;;;11.60;;
16330;SDS011;8275;48.206;16.340;2023-04-29T03:04:55;15.45;;;14.05;;
16330;SDS011;8275;48.206;16.340;2023-04-29T03:07:24;15.10;;;13.77;;
16330;SDS011;8275;48.206;16.340;2023-04-29T03:09:53;17.45;;;15.85;;
16330;SDS011;8275;48.206;16.340;2023-04-29T03:12:21;15.15;;;13.75;;
16330;SDS011;8275;48.206;16.340;2023-04-29T03:14:50;15.25;;;13.80;;
16330;SDS011;8275;48.206;16.340;2023-04-29T03:17:18;14.82;;;13.52;;
16330;SDS011;8275;48.206;16.340;2023-04-29T03:19:47;15.32;;;13.95;;
16330;SDS011;8275;48.206;16.340;2023-04-29T03:22:18;14.15;;;12.82;;
16330;SDS011;8275;48.206;16.340;2023-04-29T03:24:46;15.38;;;13.88;;
16330;SDS011;8275;48.206;16.340;2023-04-29T03:27:14;14.57;;;13.23;;
16330;SDS011;8275;48.206;16.340;2023-04-29T03:29:43;16.00;;;14.50;;
16330;SDS011;8275;48.206;16.340;2023-04-29T03:32:11;16.10;;;14.65;;
16330;SDS011;8275;48.206;16.340;2023-04-29T03:34:40;17.98;;;15.98;;
16330;SDS011;8275;48.206;16.340;2023-04-29T03:37:08;18.90;;;17.05;;
16330;SDS011;8275;48.206;16.340;2023-04-29T03:39:38;18.63;;;16.83;;
16330;SDS011;8275;48.206;16.340;2023-04-29T03:42:06;19.55;;;17.48;;
16330;SDS011;8275;48.206;16.340;2023-04-29T03:44:35;17.02;;;15.35;;
16330;SDS011;8275;48.206;16.340;2023-04-29T03:47:03;18.77;;;17.13;;
16330;SDS011;8275;48.206;16.340;2023-04-29T03:49:32;18.95;;;16.88;;
16330;SDS011;8275;48.206;16.340;2023-04-29T03:52:00;19.55;;;17.48;;
16330;SDS011;8275;48.206;16.340;2023-04-29T03:54:30;16.15;;;14.63;;
16330;SDS011;8275;48.206;16.340;2023-04-29T03:56:59;18.30;;;16.42;;
16330;SDS011;8275;48.206;16.340;2023-04-29T03:59:29;22.10;;;19.85;;
16330;SDS011;8275;48.206;16.340;2023-04-29T04:01:58;17.70;;;16.05;;
16330;SDS011;8275;48.206;16.340;2023-04-29T04:04:26;19.00;;;17.08;;
16330;SDS011;8275;48.206;16.340;2023-04-29T04:06:55;18.92;;;17.00;;
16330;SDS011;8275;48.206;16.340;2023-04-29T04:09:23;18.67;;;16.77;;
16330;SDS011;8275;48.206;16.340;2023-04-29T04:11:52;17.35;;;15.77;;
16330;SDS011;8275;48.206;16.340;2023-04-29T04:14:21;15.18;;;13.80;;
16330;SDS011;8275;48.206;16.340;2023-04-29T04:16:50;19.17;;;17.38;;
16330;SDS011;8275;48.206;16.340;2023-04-29T04:19:18;16.00;;;14.50;;
16330;SDS011;8275;48.206;16.340;2023-04-29T04:21:47;14.45;;;12.95;;
16330;SDS011;8275;48.206;16.340;2023-04-29T04:24:15;16.50;;;14.80;;
16330;SDS011;8275;48.206;16.340;2023-04-29T04:26:43;15.32;;;13.85;;
16330;SDS011;8275;48.206;16.340;2023-04-29T04:29:12;15.50;;;14.02;;
16330;SDS011;8275;48.206;16.340;2023-04-29T04:31:41;16.05;;;14.55;;
16330;SDS011;8275;48.206;16.340;2023-04-29T04:34:12;17.60;;;16.05;;
16330;SDS011;8275;48.206;16.340;2023-04-29T04:36:40;14.45;;;13.05;;
16330;SDS011;8275;48.206;16.340;2023-04-29T04:39:09;11.23;;;10.27;;
16330;SDS011;8275;48.206;16.340;2023-04-29T04:41:37;13.23;;;11.93;;
16330;SDS011;8275;48.206;16.340;2023-04-29T04:44:06;12.82;;;11.63;;
16330;SDS011;8275;48.206;16.340;2023-04-29T04:46:34;11.13;;;10.13;;
16330;SDS011;8275;48.206;16.340;2023-04-29T04:49:04;11.60;;;10.57;;
16330;SDS011;8275;48.206;16.340;2023-04-29T04:51:33;11.23;;;10.23;;
16330;SDS011;8275;48.206;16.340;2023-04-29T04:54:01;11.88;;;10.63;;
16330;SDS011;8275;48.206;16.340;2023-04-29T04:56:30;16.02;;;14.50;;
16330;SDS011;8275;48.206;16.340;2023-04-29T04:58:59;14.77;;;13.25;;
16330;SDS011;8275;48.206;16.340;2023-04-29T05:01:28;11.85;;;10.85;;
16330;SDS011;8275;48.206;16.340;2023-04-29T05:03:56;10.45;;;9.52;;
16330;SDS011;8275;48.206;16.340;2023-04-29T05:06:27;12.82;;;10.52;;
16330;SDS011;8275;48.206;16.340;2023-04-29T05:08:56;11.48;;;10.45;;
16330;SDS011;8275;48.206;16.340;2023-04-29T05:11:24;10.45;;;9.45;;
16330;SDS011;8275;48.206;16.340;2023-04-29T05:13:52;10.07;;;9.20;;
16330;SDS011;8275;48.206;16.340;2023-04-29T05:16:21;10.05;;;9.15;;
16330;SDS011;8275;48.206;16.340;2023-04-29T05:18:49;9.02;;;8.18;;
16330;SDS011;8275;48.206;16.340;2023-04-29T05:21:17;10.02;;;9.10;;
16330;SDS011;8275;48.206;16.340;2023-04-29T05:23:47;10.75;;;9.75;;
16330;SDS011;8275;48.206;16.340;2023-04-29T05:26:16;10.63;;;9.60;;
16330;SDS011;8275;48.206;16.340;2023-04-29T05:28:44;8.48;;;7.78;;
16330;SDS011;8275;48.206;16.340;2023-04-29T05:31:13;8.10;;;7.40;;
16330;SDS011;8275;48.206;16.340;2023-04-29T05:33:41;7.15;;;6.53;;
16330;SDS011;8275;48.206;16.340;2023-04-29T05:36:10;9.18;;;8.27;;
16330;SDS011;8275;48.206;16.340;2023-04-29T05:38:38;11.02;;;10.00;;
16330;SDS011;8275;48.206;16.340;2023-04-29T05:41:08;11.50;;;10.50;;
16330;SDS011;8275;48.206;16.340;2023-04-29T05:43:36;10.45;;;9.35;;
16330;SDS011;8275;48.206;16.340;2023-04-29T05:46:04;9.50;;;8.60;;
16330;SDS011;8275;48.206;16.340;2023-04-29T05:48:33;7.65;;;7.05;;
16330;SDS011;8275;48.206;16.340;2023-04-29T05:51:01;8.52;;;7.63;;
16330;SDS011;8275;48.206;16.340;2023-04-29T05:53:30;9.52;;;8.63;;
16330;SDS011;8275;48.206;16.340;2023-04-29T05:55:59;10.63;;;9.73;;
16330;SDS011;8275;48.206;16.340;2023-04-29T05:58:31;11.45;;;10.40;;
16330;SDS011;8275;48.206;16.340;2023-04-29T06:01:00;12.30;;;11.27;;
16330;SDS011;8275;48.206;16.340;2023-04-29T06:03:28;11.35;;;10.38;;
16330;SDS011;8275;48.206;16.340;2023-04-29T06:05:57;11.75;;;10.70;;
16330;SDS011;8275;48.206;16.340;2023-04-29T06:08:26;11.93;;;10.93;;
16330;SDS011;8275;48.206;16.340;2023-04-29T06:10:54;11.45;;;10.48;;
16330;SDS011;8275;48.206;16.340;2023-04-29T06:13:22;13.40;;;12.25;;
16330;SDS011;8275;48.206;16.340;2023-04-29T06:15:52;11.88;;;10.88;;
16330;SDS011;8275;48.206;16.340;2023-04-29T06:18:21;11.20;;;10.20;;
16330;SDS011;8275;48.206;16.340;2023-04-29T06:20:50;12.07;;;10.98;;
16330;SDS011;8275;48.206;16.340;2023-04-29T06:23:18;10.98;;;9.93;;
16330;SDS011;8275;48.206;16.340;2023-04-29T06:25:46;9.63;;;8.68;;
16330;SDS011;8275;48.206;16.340;2023-04-29T06:28:17;11.95;;;10.80;;
16330;SDS011;8275;48.206;16.340;2023-04-29T06:30:46;10.02;;;9.13;;
16330;SDS011;8275;48.206;16.340;2023-04-29T06:33:16;11.55;;;9.77;;
16330;SDS011;8275;48.206;16.340;2023-04-29T06:35:45;9.35;;;8.55;;
16330;SDS011;8275;48.206;16.340;2023-04-29T06:38:13;9.02;;;8.23;;
16330;SDS011;8275;48.206;16.340;2023-04-29T06:40:42;8.25;;;7.53;;
16330;SDS011;8275;48.206;16.340;2023-04-29T06:43:10;8.13;;;7.43;;
16330;SDS011;8275;48.206;16.340;2023-04-29T06:45:38;9.10;;;8.00;;
16330;SDS011;8275;48.206;16.340;2023-04-29T06:48:08;6.70;;;6.22;;
16330;SDS011;8275;48.206;16.340;2023-04-29T06:50:37;7.55;;;6.90;;
16330;SDS011;8275;48.206;16.340;2023-04-29T06:53:06;8.48;;;7.63;;
16330;SDS011;8275;48.206;16.340;2023-04-29T06:55:34;7.63;;;6.90;;
16330;SDS011;8275;48.206;16.340;2023-04-29T06:58:03;7.97;;;7.28;;
16330;SDS011;8275;48.206;16.340;2023-04-29T07:00:31;10.73;;;9.77;;
16330;SDS011;8275;48.206;16.340;2023-04-29T07:03:00;10.82;;;9.82;;
16330;SDS011;8275;48.206;16.340;2023-04-29T07:05:28;9.45;;;8.75;;
16330;SDS011;8275;48.206;16.340;2023-04-29T07:07:58;8.82;;;8.05;;
16330;SDS011;8275;48.206;16.340;2023-04-29T07:10:27;11.02;;;8.30;;
16330;SDS011;8275;48.206;16.340;2023-04-29T07:12:55;7.80;;;7.10;;
16330;SDS011;8275;48.206;16.340;2023-04-29T07:15:25;9.45;;;8.65;;
16330;SDS011;8275;48.206;16.340;2023-04-29T07:17:55;10.02;;;9.23;;
16330;SDS011;8275;48.206;16.340;2023-04-29T07:20:23;9.48;;;8.55;;
16330;SDS011;8275;48.206;16.340;2023-04-29T07:22:52;9.75;;;8.75;;
16330;SDS011;8275;48.206;16.340;2023-04-29T07:25:22;9.38;;;8.27;;
16330;SDS011;8275;48.206;16.340;2023-04-29T07:27:52;8.25;;;7.55;;
16330;SDS011;8275;48.206;16.340;2023-04-29T07:30:21;7.72;;;7.03;;
16330;SDS011;8275;48.206;16.340;2023-04-29T07:32:50;7.60;;;7.10;;
16330;SDS011;8275;48.206;16.340;2023-04-29T07:35:18;8.63;;;7.93;;
16330;SDS011;8275;48.206;16.340;2023-04-29T07:37:47;7.55;;;6.95;;
16330;SDS011;8275;48.206;16.340;2023-04-29T07:40:16;7.50;;;6.88;;
16330;SDS011;8275;48.206;16.340;2023-04-29T07:42:46;6.45;;;5.85;;
16330;SDS011;8275;48.206;16.340;2023-04-29T07:45:14;6.57;;;6.00;;
16330;SDS011;8275;48.206;16.340;2023-04-29T07:47:43;6.53;;;6.00;;
16330;SDS011;8275;48.206;16.340;2023-04-29T07:50:12;5.88;;;5.32;;
16330;SDS011;8275;48.206;16.340;2023-04-29T07:52:41;5.50;;;5.10;;
16330;SDS011;8275;48.206;16.340;2023-04-29T07:55:09;6.28;;;5.78;;
16330;SDS011;8275;48.206;16.340;2023-04-29T07:57:38;6.57;;;5.90;;
16330;SDS011;8275;48.206;16.340;2023-04-29T08:00:08;5.93;;;5.32;;
16330;SDS011;8275;48.206;16.340;2023-04-29T08:02:37;5.35;;;4.95;;
16330;SDS011;8275;48.206;16.340;2023-04-29T08:05:07;6.82;;;5.38;;
16330;SDS011;8275;48.206;16.340;2023-04-29T08:07:36;8.15;;;6.05;;
16330;SDS011;8275;48.206;16.340;2023-04-29T08:10:05;5.28;;;4.78;;
16330;SDS011;8275;48.206;16.340;2023-04-29T08:12:35;4.68;;;4.35;;
16330;SDS011;8275;48.206;16.340;2023-04-29T08:15:04;5.40;;;5.00;;
16330;SDS011;8275;48.206;16.340;2023-04-29T08:17:35;5.95;;;5.45;;
16330;SDS011;8275;48.206;16.340;2023-04-29T08:20:04;5.30;;;4.90;;
16330;SDS011;8275;48.206;16.340;2023-04-29T08:22:34;5.60;;;4.88;;
16330;SDS011;8275;48.206;16.340;2023-04-29T08:25:03;5.85;;;5.43;;
16330;SDS011;8275;48.206;16.340;2023-04-29T08:27:32;4.47;;;4.15;;
16330;SDS011;8275;48.206;16.340;2023-04-29T08:30:01;4.95;;;3.83;;
16330;SDS011;8275;48.206;16.340;2023-04-29T08:32:31;4.28;;;3.88;;
16330;SDS011;8275;48.206;16.340;2023-04-29T08:35:00;3.90;;;3.60;;
16330;SDS011;8275;48.206;16.340;2023-04-29T08:37:29;2.97;;;2.75;;
16330;SDS011;8275;48.206;16.340;2023-04-29T08:39:57;3.53;;;3.22;;
16330;SDS011;8275;48.206;16.340;2023-04-29T08:42:31;4.10;;;3.72;;
16330;SDS011;8275;48.206;16.340;2023-04-29T08:45:01;4.05;;;3.70;;
16330;SDS011;8275;48.206;16.340;2023-04-29T08:47:33;4.65;;;3.78;;
16330;SDS011;8275;48.206;16.340;2023-04-29T08:50:02;4.10;;;3.33;;
16330;SDS011;8275;48.206;16.340;2023-04-29T08:52:32;5.85;;;3.97;;
16330;SDS011;8275;48.206;16.340;2023-04-29T08:55:01;3.67;;;3.28;;
16330;SDS011;8275;48.206;16.340;2023-04-29T08:57:31;3.15;;;2.95;;
16330;SDS011;8275;48.206;16.340;2023-04-29T09:00:06;4.05;;;3.72;;
16330;SDS011;8275;48.206;16.340;2023-04-29T09:02:42;4.30;;;3.90;;
16330;SDS011;8275;48.206;16.340;2023-04-29T09:05:15;6.05;;;4.10;;
16330;SDS011;8275;48.206;16.340;2023-04-29T09:07:44;7.20;;;3.88;;
16330;SDS011;8275;48.206;16.340;2023-04-29T09:10:13;3.95;;;3.55;;
16330;SDS011;8275;48.206;16.340;2023-04-29T09:12:42;4.68;;;4.38;;
16330;SDS011;8275;48.206;16.340;2023-04-29T09:15:11;4.30;;;4.00;;
16330;SDS011;8275;48.206;16.340;2023-04-29T09:17:41;6.95;;;5.28;;
16330;SDS011;8275;48.206;16.340;2023-04-29T09:20:30;5.20;;;4.80;;
16330;SDS011;8275;48.206;16.340;2023-04-29T09:22:59;2.65;;;2.47;;
16330;SDS011;8275;48.206;16.340;2023-04-29T09:25:30;1.80;;;1.70;;
16330;SDS011;8275;48.206;16.340;2023-04-29T09:27:58;1.92;;;1.70;;
16330;SDS011;8275;48.206;16.340;2023-04-29T09:30:45;1.13;;;0.90;;
16330;SDS011;8275;48.206;16.340;2023-04-29T09:33:17;2.08;;;1.65;;
16330;SDS011;8275;48.206;16.340;2023-04-29T09:35:45;2.15;;;2.05;;
16330;SDS011;8275;48.206;16.340;2023-04-29T09:38:14;2.17;;;1.80;;
16330;SDS011;8275;48.206;16.340;2023-04-29T09:40:44;2.03;;;1.80;;
16330;SDS011;8275;48.206;16.340;2023-04-29T09:43:25;1.88;;;1.65;;
16330;SDS011;8275;48.206;16.340;2023-04-29T09:45:53;2.60;;;1.38;;
16330;SDS011;8275;48.206;16.340;2023-04-29T09:48:23;2.20;;;1.38;;
16330;SDS011;8275;48.206;16.340;2023-04-29T09:51:00;1.05;;;1.05;;
16330;SDS011;8275;48.206;16.340;2023-04-29T09:53:29;1.95;;;1.13;;
16330;SDS011;8275;48.206;16.340;2023-04-29T09:55:59;0.82;;;0.82;;
16330;SDS011;8275;48.206;16.340;2023-04-29T09:58:29;0.80;;;0.80;;
16330;SDS011;8275;48.206;16.340;2023-04-29T10:01:03;1.00;;;0.90;;
16330;SDS011;8275;48.206;16.340;2023-04-29T10:03:34;0.93;;;0.93;;
16330;SDS011;8275;48.206;16.340;2023-04-29T10:06:05;2.78;;;0.98;;
16330;SDS011;8275;48.206;16.340;2023-04-29T10:08:35;1.23;;;0.98;;
16330;SDS011;8275;48.206;16.340;2023-04-29T10:11:03;1.27;;;1.00;;
16330;SDS011;8275;48.206;16.340;2023-04-29T10:13:33;1.27;;;1.17;;
16330;SDS011;8275;48.206;16.340;2023-04-29T10:16:07;1.02;;;1.02;;
16330;SDS011;8275;48.206;16.340;2023-04-29T10:18:58;1.10;;;1.10;;
16330;SDS011;8275;48.206;16.340;2023-04-29T10:21:32;1.00;;;0.95;;
16330;SDS011;8275;48.206;16.340;2023-04-29T10:24:01;0.80;;;0.75;;
16330;SDS011;8275;48.206;16.340;2023-04-29T10:26:31;1.20;;;1.10;;
16330;SDS011;8275;48.206;16.340;2023-04-29T10:29:02;1.55;;;1.00;;
16330;SDS011;8275;48.206;16.340;2023-04-29T10:31:33;1.52;;;1.00;;
16330;SDS011;8275;48.206;16.340;2023-04-29T10:34:06;1.00;;;0.90;;
16330;SDS011;8275;48.206;16.340;2023-04-29T10:36:34;1.23;;;1.13;;
16330;SDS011;8275;48.206;16.340;2023-04-29T10:39:04;0.90;;;0.90;;
16330;SDS011;8275;48.206;16.340;2023-04-29T10:41:43;2.47;;;1.20;;
16330;SDS011;8275;48.206;16.340;2023-04-29T10:44:13;1.60;;;1.50;;
16330;SDS011;8275;48.206;16.340;2023-04-29T10:46:42;1.08;;;1.08;;
16330;SDS011;8275;48.206;16.340;2023-04-29T10:49:12;1.80;;;1.70;;
16330;SDS011;8275;48.206;16.340;2023-04-29T10:51:41;6.60;;;6.10;;
16330;SDS011;8275;48.206;16.340;2023-04-29T10:54:11;5.28;;;4.78;;
16330;SDS011;8275;48.206;16.340;2023-04-29T10:56:42;5.20;;;4.80;;
16330;SDS011;8275;48.206;16.340;2023-04-29T10:59:15;5.40;;;5.00;;
16330;SDS011;8275;48.206;16.340;2023-04-29T11:01:47;5.80;;;4.97;;
16330;SDS011;8275;48.206;16.340;2023-04-29T11:04:19;6.70;;;6.07;;
16330;SDS011;8275;48.206;16.340;2023-04-29T11:06:50;5.95;;;5.45;;
16330;SDS011;8275;48.206;16.340;2023-04-29T11:09:20;7.07;;;6.50;;
16330;SDS011;8275;48.206;16.340;2023-04-29T11:11:59;7.13;;;6.53;;
16330;SDS011;8275;48.206;16.340;2023-04-29T11:14:31;5.70;;;5.30;;
16330;SDS011;8275;48.206;16.340;2023-04-29T11:17:03;6.13;;;5.63;;
16330;SDS011;8275;48.206;16.340;2023-04-29T11:19:40;6.90;;;6.40;;
16330;SDS011;8275;48.206;16.340;2023-04-29T11:22:12;6.65;;;6.05;;
16330;SDS011;8275;48.206;16.340;2023-04-29T11:24:53;7.03;;;6.43;;
16330;SDS011;8275;48.206;16.340;2023-04-29T11:27:24;6.60;;;6.00;;
16330;SDS011;8275;48.206;16.340;2023-04-29T11:29:56;6.13;;;5.53;;
16330;SDS011;8275;48.206;16.340;2023-04-29T11:32:26;5.63;;;5.13;;
16330;SDS011;8275;48.206;16.340;2023-04-29T11:35:07;6.07;;;5.57;;
16330;SDS011;8275;48.206;16.340;2023-04-29T11:37:37;8.18;;;7.47;;
16330;SDS011;8275;48.206;16.340;2023-04-29T11:40:07;6.90;;;6.22;;
16330;SDS011;8275;48.206;16.340;2023-04-29T11:42:39;7.28;;;6.57;;
16330;SDS011;8275;48.206;16.340;2023-04-29T11:45:10;8.55;;;7.30;;
16330;SDS011;8275;48.206;16.340;2023-04-29T11:47:41;6.97;;;5.43;;
16330;SDS011;8275;48.206;16.340;2023-04-29T11:50:13;7.22;;;6.63;;
16330;SDS011;8275;48.206;16.340;2023-04-29T11:52:44;6.57;;;6.05;;
16330;SDS011;8275;48.206;16.340;2023-04-29T11:55:14;6.57;;;5.97;;
16330;SDS011;8275;48.206;16.340;2023-04-29T11:57:42;8.15;;;7.45;;
16330;SDS011;8275;48.206;16.340;2023-04-29T12:00:12;6.22;;;5.72;;
16330;SDS011;8275;48.206;16.340;2023-04-29T12:02:42;6.47;;;5.88;;
16330;SDS011;8275;48.206;16.340;2023-04-29T12:05:15;6.38;;;5.82;;
16330;SDS011;8275;48.206;16.340;2023-04-29T12:07:45;7.03;;;6.07;;
16330;SDS011;8275;48.206;16.340;2023-04-29T12:10:15;12.57;;;6.63;;
16330;SDS011;8275;48.206;16.340;2023-04-29T12:12:44;8.95;;;8.15;;
16330;SDS011;8275;48.206;16.340;2023-04-29T12:15:12;9.20;;;8.40;;
16330;SDS011;8275;48.206;16.340;2023-04-29T12:17:41;9.57;;;8.77;;
16330;SDS011;8275;48.206;16.340;2023-04-29T12:20:11;7.80;;;7.20;;
16330;SDS011;8275;48.206;16.340;2023-04-29T12:22:41;7.05;;;6.45;;
16330;SDS011;8275;48.206;16.340;2023-04-29T12:25:10;6.63;;;6.13;;
16330;SDS011;8275;48.206;16.340;2023-04-29T12:27:39;6.72;;;6.13;;
16330;SDS011;8275;48.206;16.340;2023-04-29T12:30:09;6.03;;;5.45;;
16330;SDS011;8275;48.206;16.340;2023-04-29T12:32:38;5.90;;;5.38;;
16330;SDS011;8275;48.206;16.340;2023-04-29T12:35:13;8.18;;;7.32;;
16330;SDS011;8275;48.206;16.340;2023-04-29T12:37:47;5.93;;;5.53;;
16330;SDS011;8275;48.206;16.340;2023-04-29T12:40:16;6.75;;;6.13;;
16330;SDS011;8275;48.206;16.340;2023-04-29T12:42:46;7.88;;;6.90;;
16330;SDS011;8275;48.206;16.340;2023-04-29T12:45:24;7.68;;;7.05;;
16330;SDS011;8275;48.206;16.340;2023-04-29T12:47:55;7.93;;;7.22;;
16330;SDS011;8275;48.206;16.340;2023-04-29T12:50:29;9.25;;;7.15;;
16330;SDS011;8275;48.206;16.340;2023-04-29T12:53:02;8.48;;;7.68;;
16330;SDS011;8275;48.206;16.340;2023-04-29T12:55:32;9.25;;;8.13;;
16330;SDS011;8275;48.206;16.340;2023-04-29T12:58:01;9.23;;;8.32;;
16330;SDS011;8275;48.206;16.340;2023-04-29T13:00:30;7.20;;;6.63;;
16330;SDS011;8275;48.206;16.340;2023-04-29T13:03:00;8.27;;;7.57;;
16330;SDS011;8275;48.206;16.340;2023-04-29T13:05:29;5.35;;;4.93;;
16330;SDS011;8275;48.206;16.340;2023-04-29T13:07:58;4.40;;;4.00;;
16330;SDS011;8275;48.206;16.340;2023-04-29T13:10:27;3.75;;;3.45;;
16330;SDS011;8275;48.206;16.340;2023-04-29T13:12:56;6.00;;;5.35;;
16330;SDS011;8275;48.206;16.340;2023-04-29T13:15:24;6.30;;;5.70;;
16330;SDS011;8275;48.206;16.340;2023-04-29T13:17:53;6.00;;;5.07;;
16330;SDS011;8275;48.206;16.340;2023-04-29T13:20:24;5.30;;;4.13;;
16330;SDS011;8275;48.206;16.340;2023-04-29T13:22:52;4.28;;;3.92;;
16330;SDS011;8275;48.206;16.340;2023-04-29T13:25:21;3.65;;;3.35;;
16330;SDS011;8275;48.206;16.340;2023-04-29T13:27:51;3.25;;;2.92;;
16330;SDS011;8275;48.206;16.340;2023-04-29T13:30:19;3.20;;;3.00;;
16330;SDS011;8275;48.206;16.340;2023-04-29T13:32:47;4.00;;;3.55;;
16330;SDS011;8275;48.206;16.340;2023-04-29T13:35:23;3.97;;;3.33;;
16330;SDS011;8275;48.206;16.340;2023-04-29T13:37:52;2.92;;;2.72;;
16330;SDS011;8275;48.206;16.340;2023-04-29T13:40:20;3.15;;;2.83;;
16330;SDS011;8275;48.206;16.340;2023-04-29T13:42:54;4.57;;;4.28;;
16330;SDS011;8275;48.206;16.340;2023-04-29T13:45:32;2.50;;;2.30;;
16330;SDS011;8275;48.206;16.340;2023-04-29T13:48:07;2.60;;;2.40;;
16330;SDS011;8275;48.206;16.340;2023-04-29T13:50:56;2.53;;;2.33;;
16330;SDS011;8275;48.206;16.340;2023-04-29T13:53:27;2.67;;;2.47;;
16330;SDS011;8275;48.206;16.340;2023-04-29T13:55:59;2.13;;;1.83;;
16330;SDS011;8275;48.206;16.340;2023-04-29T13:58:49;2.42;;;2.05;;
16330;SDS011;8275;48.206;16.340;2023-04-29T14:01:37;5.72;;;2.83;;
16330;SDS011;8275;48.206;16.340;2023-04-29T14:04:09;4.20;;;3.65;;
16330;SDS011;8275;48.206;16.340;2023-04-29T14:06:37;1.83;;;1.73;;
16330;SDS011;8275;48.206;16.340;2023-04-29T14:09:06;2.50;;;2.30;;
16330;SDS011;8275;48.206;16.340;2023-04-29T14:11:34;1.92;;;1.83;;
16330;SDS011;8275;48.206;16.340;2023-04-29T14:14:04;4.60;;;2.17;;
16330;SDS011;8275;48.206;16.340;2023-04-29T14:16:32;5.63;;;5.10;;
16330;SDS011;8275;48.206;16.340;2023-04-29T14:19:01;3.90;;;3.50;;
16330;SDS011;8275;48.206;16.340;2023-04-29T14:21:30;3.22;;;2.92;;
16330;SDS011;8275;48.206;16.340;2023-04-29T14:23:59;4.40;;;2.88;;
16330;SDS011;8275;48.206;16.340;2023-04-29T14:26:28;5.47;;;2.58;;
16330;SDS011;8275;48.206;16.340;2023-04-29T14:28:57;3.50;;;2.90;;
16330;SDS011;8275;48.206;16.340;2023-04-29T14:31:28;2.55;;;2.35;;
16330;SDS011;8275;48.206;16.340;2023-04-29T14:34:00;4.60;;;4.00;;
16330;SDS011;8275;48.206;16.340;2023-04-29T14:36:29;6.03;;;5.43;;
16330;SDS011;8275;48.206;16.340;2023-04-29T14:38:58;3.45;;;3.13;;
16330;SDS011;8275;48.206;16.340;2023-04-29T14:41:29;5.13;;;3.25;;
16330;SDS011;8275;48.206;16.340;2023-04-29T14:43:57;2.25;;;2.05;;
16330;SDS011;8275;48.206;16.340;2023-04-29T14:46:27;2.40;;;2.20;;
16330;SDS011;8275;48.206;16.340;2023-04-29T14:48:58;5.28;;;3.33;;
16330;SDS011;8275;48.206;16.340;2023-04-29T14:51:27;5.78;;;3.15;;
16330;SDS011;8275;48.206;16.340;2023-04-29T14:53:56;3.35;;;3.15;;
16330;SDS011;8275;48.206;16.340;2023-04-29T14:56:24;4.20;;;2.10;;